LFLP

Annecy-Haute-Savoie-Mont Blanc Airport

Airport
ICAO code
LFLP
IATA Code
NCY
Summary
ICAO Region
EUR
ICAO Territory
Location

, Rhone-Alpes

Serving
Annecy
Elevation
1521 ft
Coordinates
45° 55' 45" N , 6° 5' 56" E
Metar
Observation
LFLP 091900Z AUTO 32004KT 9999 FEW010 OVC030 02/02 Q1001 TEMPO 4000 RA BR BKN009
Station
ANNECY/MEYTHET
Date/Time
2022-12-09 19:00:00
Wind direction
320°
Wind speed
04 kts
Lowest cloud amount
few clouds
Temperature
2°C
Dew point
2°C
Humidity
100%
QNH
1001 hPa
Weather condition
n/a

Runways

Designator Length Width Surface Rops
4/22 1630 30 ASP Yes/Yes

Airport map

Aerial View

SKYbrary Partners:

Safety knowledge contributed by: